Ingelmunster, Belgium
Current Conditions -  °F | °C
As of 7:00 PM on Friday 19 Dec 2014 (Local Time) from LFQQ Reporting Station
Clear Clear  
Wind Chill: 39°   Ceiling: Unl
Heat Index: 45°   Visibility: 6mi
Dew Point: 37°   Wind: 10mph
Humidity: 76%   Direction: 270°W
Pressure: 30.12"   Gusts: NA
Location:  50.92°N, 3.26°E
Report Text: LFQQ 191800Z 27009KT CAVOK 07/03 Q1020 NOSIG
Loading
Personal Weather Stations






























Interactive Weather Map New forecast layout! Learn more

10-Day Weather Forecast

Advertisements
Track Severe Weather on mobile